createdAt,value
2022-08-28T00:00:01.664Z,26.27
2022-08-28T00:01:02.553Z,26.23
2022-08-28T00:02:03.414Z,26.26
2022-08-28T00:03:04.323Z,26.30
2022-08-28T00:04:05.174Z,26.30
2022-08-28T00:05:06.105Z,26.29
2022-08-28T00:06:06.497Z,26.30
2022-08-28T00:07:07.355Z,26.26
2022-08-28T00:08:08.353Z,26.26
2022-08-28T00:09:09.235Z,26.26
2022-08-28T00:10:09.825Z,26.29
2022-08-28T00:11:10.698Z,26.27
2022-08-28T00:12:11.582Z,26.26
2022-08-28T00:13:12.445Z,26.26
2022-08-28T00:14:13.333Z,26.27
2022-08-28T00:15:14.232Z,26.26
2022-08-28T00:16:15.259Z,26.26
2022-08-28T00:17:16.098Z,26.27
2022-08-28T00:18:16.992Z,26.24
2022-08-28T00:19:17.889Z,26.22
2022-08-28T00:20:18.784Z,26.23
2022-08-28T00:21:19.619Z,26.22
2022-08-28T00:22:20.581Z,26.22
2022-08-28T00:23:21.423Z,26.22
2022-08-28T00:24:22.302Z,26.23
2022-08-28T00:25:23.197Z,26.23
2022-08-28T00:26:24.083Z,26.24
2022-08-28T00:27:24.977Z,26.22
2022-08-28T00:28:25.826Z,26.22
2022-08-28T00:29:26.753Z,26.24
2022-08-28T00:30:27.588Z,26.23
2022-08-28T00:31:28.544Z,26.22
2022-08-28T00:32:29.372Z,26.18
2022-08-28T00:33:30.277Z,26.19
2022-08-28T00:34:33.272Z,26.23
2022-08-28T00:35:31.883Z,26.19
2022-08-28T00:36:32.749Z,26.19
2022-08-28T00:37:33.609Z,26.19
2022-08-28T00:38:34.531Z,26.19
2022-08-28T00:39:35.527Z,26.22
2022-08-28T00:40:36.581Z,26.22
2022-08-28T00:41:36.949Z,26.22
2022-08-28T00:42:37.907Z,26.22
2022-08-28T00:43:38.788Z,26.18
2022-08-28T00:44:39.670Z,26.18
2022-08-28T00:45:40.561Z,26.22
2022-08-28T00:46:41.483Z,26.15
2022-08-28T00:47:42.297Z,26.19
2022-08-28T00:48:43.171Z,26.19
2022-08-28T00:49:44.177Z,26.18
2022-08-28T00:50:44.821Z,26.15
2022-08-28T00:51:45.290Z,26.15
2022-08-28T00:52:46.124Z,26.18
2022-08-28T00:53:47.002Z,26.19
2022-08-28T00:54:59.180Z,26.16
2022-08-28T00:55:49.653Z,26.18
2022-08-28T00:56:49.527Z,26.18
2022-08-28T00:57:50.397Z,26.18
2022-08-28T00:58:51.299Z,26.18
2022-08-28T00:59:52.167Z,26.15
2022-08-28T01:00:52.949Z,26.18
2022-08-28T01:01:53.938Z,26.16
2022-08-28T01:02:54.804Z,26.15
2022-08-28T01:04:49.159Z,26.13
2022-08-28T01:06:46.691Z,26.18
2022-08-28T01:07:47.560Z,26.13
2022-08-28T01:08:50.511Z,26.13
2022-08-28T01:09:49.063Z,26.11
2022-08-28T01:10:49.946Z,26.11
2022-08-28T01:11:50.823Z,26.13
2022-08-28T01:12:51.698Z,26.13
2022-08-28T01:13:52.566Z,26.11
2022-08-28T01:14:53.454Z,26.11
2022-08-28T01:15:54.375Z,26.08
2022-08-28T01:16:55.238Z,26.13
2022-08-28T01:17:56.241Z,26.10
2022-08-28T01:18:57.107Z,26.13
2022-08-28T01:19:57.960Z,26.11
2022-08-28T01:20:58.862Z,26.10
2022-08-28T01:21:59.730Z,26.11
2022-08-28T01:23:00.693Z,26.08
2022-08-28T01:24:01.558Z,26.11
2022-08-28T01:25:02.413Z,26.10
2022-08-28T01:26:03.310Z,26.08
2022-08-28T01:27:05.115Z,26.07
2022-08-28T01:28:05.008Z,26.13
2022-08-28T01:29:05.925Z,26.07
2022-08-28T01:30:06.753Z,26.10
2022-08-28T01:31:07.743Z,26.10
2022-08-28T01:32:08.565Z,26.06
2022-08-28T01:33:09.552Z,26.08
2022-08-28T01:34:10.329Z,26.06
2022-08-28T01:35:11.208Z,26.08
2022-08-28T01:36:12.075Z,26.07
2022-08-28T01:37:12.964Z,26.07
2022-08-28T01:38:17.607Z,26.04
2022-08-28T01:39:15.603Z,26.04
2022-08-28T01:40:15.573Z,26.04
2022-08-28T01:41:16.422Z,26.06
2022-08-28T01:42:17.311Z,26.03
2022-08-28T01:43:18.232Z,26.04
2022-08-28T01:44:19.071Z,26.03
2022-08-28T01:45:19.938Z,26.01
2022-08-28T01:46:20.858Z,26.06
2022-08-28T01:47:21.718Z,26.07
2022-08-28T01:48:22.608Z,26.03
2022-08-28T01:49:23.485Z,26.01
2022-08-28T01:50:24.356Z,26.01
2022-08-28T01:51:25.316Z,26.01
2022-08-28T01:52:26.533Z,25.99
2022-08-28T01:53:26.462Z,25.99
2022-08-28T01:54:28.230Z,25.96
2022-08-28T01:55:28.086Z,25.98
2022-08-28T01:56:28.788Z,25.98
2022-08-28T01:57:29.709Z,25.99
2022-08-28T01:58:32.964Z,25.99
2022-08-28T01:59:31.190Z,25.99
2022-08-28T02:00:32.066Z,25.96
2022-08-28T02:01:33.024Z,25.95
2022-08-28T02:02:33.845Z,25.98
2022-08-28T02:03:34.732Z,25.95
2022-08-28T02:04:35.645Z,25.95
2022-08-28T02:05:36.477Z,25.93
2022-08-28T02:06:37.411Z,25.98
2022-08-28T02:07:38.274Z,25.96
2022-08-28T02:08:39.125Z,25.96
2022-08-28T02:09:39.990Z,25.96
2022-08-28T02:10:40.867Z,25.93
2022-08-28T02:11:41.779Z,25.95
2022-08-28T02:12:42.722Z,25.96
2022-08-28T02:13:43.551Z,25.96
2022-08-28T02:14:44.111Z,25.95
2022-08-28T02:15:45.044Z,25.92
2022-08-28T02:16:45.875Z,25.92
2022-08-28T02:17:46.750Z,25.95
2022-08-28T02:18:47.657Z,25.92
2022-08-28T02:19:48.589Z,25.92
2022-08-28T02:20:49.447Z,25.93
2022-08-28T02:21:50.320Z,25.93
2022-08-28T02:22:51.232Z,25.92
2022-08-28T02:23:52.138Z,25.89
2022-08-28T02:24:52.997Z,25.92
2022-08-28T02:25:53.900Z,25.91
2022-08-28T02:26:54.782Z,25.93
2022-08-28T02:27:55.781Z,25.93
2022-08-28T02:28:56.646Z,25.91
2022-08-28T02:29:57.523Z,25.92
2022-08-28T02:30:58.435Z,25.92
2022-08-28T02:31:59.349Z,25.91
2022-08-28T02:33:00.222Z,25.89
2022-08-28T02:34:01.063Z,25.88
2022-08-28T02:35:01.922Z,25.91
2022-08-28T02:36:02.871Z,25.89
2022-08-28T02:37:03.728Z,25.89
2022-08-28T02:38:04.596Z,25.89
2022-08-28T02:39:05.470Z,25.83
2022-08-28T02:40:06.452Z,25.86
2022-08-28T02:41:07.281Z,25.89
2022-08-28T02:42:08.165Z,25.83
2022-08-28T02:43:09.167Z,25.86
2022-08-28T02:44:09.998Z,25.86
2022-08-28T02:45:10.933Z,25.89
2022-08-28T02:46:12.695Z,25.88
2022-08-28T02:47:12.552Z,25.86
2022-08-28T02:48:16.696Z,25.88
2022-08-28T02:49:14.108Z,25.83
2022-08-28T02:50:15.015Z,25.83
2022-08-28T02:51:15.858Z,25.85
2022-08-28T02:52:16.789Z,25.85
2022-08-28T02:53:17.635Z,25.86
2022-08-28T02:54:18.621Z,25.83
2022-08-28T02:55:19.436Z,25.85
2022-08-28T02:56:20.305Z,25.81
2022-08-28T02:57:21.219Z,25.85
2022-08-28T02:58:22.142Z,25.78
2022-08-28T02:59:22.988Z,25.81
2022-08-28T03:00:23.890Z,25.78
2022-08-28T03:01:24.789Z,25.80
2022-08-28T03:02:25.760Z,25.81
2022-08-28T03:03:26.330Z,25.78
2022-08-28T03:04:27.188Z,25.78
2022-08-28T03:05:28.044Z,25.78
2022-08-28T03:06:28.926Z,25.80
2022-08-28T03:07:29.814Z,25.77
2022-08-28T03:08:30.727Z,25.78
2022-08-28T03:09:31.612Z,25.76
2022-08-28T03:10:32.461Z,25.74
2022-08-28T03:11:33.346Z,25.77
2022-08-28T03:12:34.245Z,25.77
2022-08-28T03:13:35.139Z,25.77
2022-08-28T03:14:35.982Z,25.77
2022-08-28T03:15:36.907Z,25.76
2022-08-28T03:16:37.800Z,25.76
2022-08-28T03:17:38.645Z,25.76
2022-08-28T03:18:39.612Z,25.77
2022-08-28T03:19:40.492Z,25.76
2022-08-28T03:20:41.364Z,25.76
2022-08-28T03:21:42.276Z,25.71
2022-08-28T03:22:43.154Z,25.74
2022-08-28T03:23:44.042Z,25.70
2022-08-28T03:24:44.938Z,25.73
2022-08-28T03:25:45.800Z,25.73
2022-08-28T03:26:46.689Z,25.73
2022-08-28T03:27:47.580Z,25.74
2022-08-28T03:28:48.454Z,25.73
2022-08-28T03:29:49.402Z,25.71
2022-08-28T03:30:50.350Z,25.71
2022-08-28T03:31:51.183Z,25.71
2022-08-28T03:32:52.074Z,25.73
2022-08-28T03:33:52.947Z,25.70
2022-08-28T03:34:53.831Z,25.71
2022-08-28T03:35:54.898Z,25.68
2022-08-28T03:36:55.304Z,25.68
2022-08-28T03:37:56.281Z,25.70
2022-08-28T03:38:57.106Z,25.70
2022-08-28T03:39:58.030Z,25.70
2022-08-28T03:40:58.874Z,25.68
2022-08-28T03:41:59.749Z,25.68
2022-08-28T03:43:00.640Z,25.68
2022-08-28T03:44:01.510Z,25.70
2022-08-28T03:45:02.388Z,25.68
2022-08-28T03:46:03.400Z,25.67
2022-08-28T03:47:03.774Z,25.67
2022-08-28T03:48:04.390Z,25.68
2022-08-28T03:49:04.847Z,25.67
2022-08-28T03:50:05.739Z,25.67
2022-08-28T03:51:06.627Z,25.68
2022-08-28T03:52:07.489Z,25.70
2022-08-28T03:53:08.573Z,25.67
2022-08-28T03:54:08.944Z,25.66
2022-08-28T03:55:09.832Z,25.66
2022-08-28T03:56:10.713Z,25.66
2022-08-28T03:57:11.624Z,25.61
2022-08-28T03:58:19.086Z,25.70
2022-08-28T03:59:14.286Z,25.63
2022-08-28T04:00:14.163Z,25.63
2022-08-28T04:01:15.097Z,25.66
2022-08-28T04:02:15.944Z,25.61
2022-08-28T04:03:16.916Z,25.66
2022-08-28T04:04:17.760Z,25.66
2022-08-28T04:05:18.612Z,25.62
2022-08-28T04:06:19.525Z,25.61
2022-08-28T04:07:20.397Z,25.62
2022-08-28T04:08:21.281Z,25.59
2022-08-28T04:09:22.207Z,25.67
2022-08-28T04:10:23.101Z,25.59
2022-08-28T04:11:23.959Z,25.59
2022-08-28T04:12:24.896Z,25.61
2022-08-28T04:13:25.644Z,25.58
2022-08-28T04:14:26.536Z,25.58
2022-08-28T04:15:27.398Z,25.62
2022-08-28T04:16:28.345Z,25.62
2022-08-28T04:17:29.218Z,25.59
2022-08-28T04:18:30.089Z,25.59
2022-08-28T04:19:30.972Z,25.59
2022-08-28T04:20:31.844Z,25.59
2022-08-28T04:21:32.742Z,25.58
2022-08-28T04:22:33.680Z,25.58
2022-08-28T04:23:34.499Z,25.55
2022-08-28T04:24:35.383Z,25.58
2022-08-28T04:25:36.251Z,25.59
2022-08-28T04:26:37.190Z,25.58
2022-08-28T04:27:38.169Z,25.56
2022-08-28T04:28:38.632Z,25.55
2022-08-28T04:29:39.543Z,25.56
2022-08-28T04:30:40.397Z,25.58
2022-08-28T04:31:41.394Z,25.55
2022-08-28T04:32:42.262Z,25.56
2022-08-28T04:33:43.050Z,25.56
2022-08-28T04:34:43.954Z,25.56
2022-08-28T04:35:45.568Z,25.54
2022-08-28T04:36:45.440Z,25.55
2022-08-28T04:37:46.354Z,25.56
2022-08-28T04:38:47.234Z,25.52
2022-08-28T04:39:48.117Z,25.56
2022-08-28T04:40:48.966Z,25.55
2022-08-28T04:41:49.889Z,25.54
2022-08-28T04:42:50.795Z,25.56
2022-08-28T04:43:51.672Z,25.56
2022-08-28T04:44:52.551Z,25.54
2022-08-28T04:45:53.489Z,25.54
2022-08-28T04:46:54.358Z,25.58
2022-08-28T04:47:55.081Z,25.56
2022-08-28T04:48:55.965Z,25.56
2022-08-28T04:49:56.828Z,25.58
2022-08-28T04:50:57.708Z,25.56
2022-08-28T04:51:58.589Z,25.56
2022-08-28T04:52:59.486Z,25.56
2022-08-28T04:54:00.350Z,25.55
2022-08-28T04:55:01.538Z,25.58
2022-08-28T04:56:01.852Z,25.56
2022-08-28T04:57:06.439Z,25.56
2022-08-28T04:58:03.490Z,25.58
2022-08-28T04:59:04.322Z,25.56
2022-08-28T05:00:05.189Z,25.58
2022-08-28T05:01:06.157Z,25.56
2022-08-28T05:02:07.127Z,25.56
2022-08-28T05:03:08.071Z,25.58
2022-08-28T05:04:08.965Z,25.56
2022-08-28T05:05:09.832Z,25.58
2022-08-28T05:06:10.771Z,25.58
2022-08-28T05:07:11.632Z,25.56
2022-08-28T05:08:12.696Z,25.59
2022-08-28T05:09:13.188Z,25.55
2022-08-28T05:10:14.022Z,25.55
2022-08-28T05:11:33.736Z,25.58
2022-08-28T05:12:16.667Z,25.58
2022-08-28T05:13:16.629Z,25.59
2022-08-28T05:14:17.534Z,25.61
2022-08-28T05:15:18.390Z,25.59
2022-08-28T05:16:19.312Z,25.58
2022-08-28T05:17:20.154Z,25.59
2022-08-28T05:20:10.276Z,25.61
2022-08-28T05:21:14.354Z,25.58
2022-08-28T05:22:11.851Z,25.59
2022-08-28T05:23:12.729Z,25.59
2022-08-28T05:24:13.610Z,25.59
2022-08-28T05:25:14.490Z,25.61
2022-08-28T05:26:15.368Z,25.63
2022-08-28T05:27:16.241Z,25.62
2022-08-28T05:28:17.187Z,25.66
2022-08-28T05:29:18.020Z,25.63
2022-08-28T05:30:18.960Z,25.66
2022-08-28T05:31:19.894Z,25.67
2022-08-28T05:32:20.788Z,25.71
2022-08-28T05:33:21.770Z,25.70
2022-08-28T05:34:23.220Z,25.73
2022-08-28T05:35:23.593Z,25.68
2022-08-28T05:36:26.193Z,25.73
2022-08-28T05:37:26.217Z,25.70
2022-08-28T05:38:26.117Z,25.73
2022-08-28T05:39:27.072Z,25.76
2022-08-28T05:40:28.013Z,25.76
2022-08-28T05:41:28.960Z,25.73
2022-08-28T05:42:31.002Z,25.74
2022-08-28T05:43:30.659Z,25.74
2022-08-28T05:44:31.581Z,25.76
2022-08-28T05:45:32.472Z,25.77
2022-08-28T05:46:33.333Z,25.74
2022-08-28T05:47:34.195Z,25.78
2022-08-28T05:48:37.091Z,25.80
2022-08-28T05:49:35.752Z,25.80
2022-08-28T05:50:36.592Z,25.80
2022-08-28T05:51:37.474Z,25.83
2022-08-28T05:52:38.350Z,25.83
2022-08-28T05:53:39.274Z,25.81
2022-08-28T05:54:40.181Z,25.85
2022-08-28T05:55:41.070Z,25.83
2022-08-28T05:56:41.958Z,25.85
2022-08-28T05:57:42.821Z,25.85
2022-08-28T05:58:43.709Z,25.91
2022-08-28T05:59:44.609Z,25.93
2022-08-28T06:00:45.477Z,25.88
2022-08-28T06:01:46.454Z,25.93
2022-08-28T06:02:47.280Z,25.93
2022-08-28T06:03:48.241Z,25.92
2022-08-28T06:04:49.119Z,25.95
2022-08-28T06:05:49.977Z,25.93
2022-08-28T06:06:50.862Z,25.93
2022-08-28T06:07:51.755Z,25.95
2022-08-28T06:08:58.734Z,25.99
2022-08-28T06:09:54.410Z,25.99
2022-08-28T06:10:54.312Z,25.99
2022-08-28T06:11:55.164Z,26.01
2022-08-28T06:12:55.968Z,26.03
2022-08-28T06:13:56.612Z,26.03
2022-08-28T06:14:57.488Z,26.01
2022-08-28T06:15:58.470Z,26.06
2022-08-28T06:16:59.282Z,26.04
2022-08-28T06:18:00.225Z,26.06
2022-08-28T06:19:01.115Z,26.08
2022-08-28T06:20:01.973Z,26.13
2022-08-28T06:21:02.857Z,26.08
2022-08-28T06:22:07.320Z,26.10
2022-08-28T06:23:04.503Z,26.11
2022-08-28T06:24:05.504Z,26.10
2022-08-28T06:25:08.037Z,26.13
2022-08-28T06:26:06.994Z,26.11
2022-08-28T06:27:07.877Z,26.15
2022-08-28T06:28:08.805Z,26.16
2022-08-28T06:29:09.671Z,26.13
2022-08-28T06:30:10.544Z,26.18
2022-08-28T06:31:24.657Z,26.19
2022-08-28T06:32:13.280Z,26.19
2022-08-28T06:33:13.144Z,26.24
2022-08-28T06:34:14.027Z,26.23
2022-08-28T06:35:14.927Z,26.24
2022-08-28T06:36:15.827Z,26.24
2022-08-28T06:37:16.701Z,26.26
2022-08-28T06:38:17.564Z,26.26
2022-08-28T06:39:18.483Z,26.23
2022-08-28T06:40:19.406Z,26.26
2022-08-28T06:41:20.275Z,26.26
2022-08-28T06:42:21.128Z,26.27
2022-08-28T06:43:22.027Z,26.26
2022-08-28T06:44:22.914Z,26.29
2022-08-28T06:45:23.821Z,26.29
2022-08-28T06:46:24.773Z,26.31
2022-08-28T06:47:25.604Z,26.29
2022-08-28T06:48:26.495Z,26.27
2022-08-28T06:49:27.386Z,26.30
2022-08-28T06:50:28.266Z,26.29
2022-08-28T06:51:29.210Z,26.24
2022-08-28T06:52:30.059Z,26.26
2022-08-28T06:53:30.930Z,26.31
2022-08-28T06:54:31.800Z,26.29
2022-08-28T06:55:32.691Z,26.33
2022-08-28T06:56:33.485Z,26.31
2022-08-28T06:57:34.359Z,26.31
2022-08-28T06:58:35.307Z,26.31
2022-08-28T06:59:36.211Z,26.34
2022-08-28T07:00:37.093Z,26.36
2022-08-28T07:01:38.091Z,26.36
2022-08-28T07:02:39.001Z,26.39
2022-08-28T07:03:42.644Z,26.42
2022-08-28T07:04:40.799Z,26.41
2022-08-28T07:05:41.789Z,26.45
2022-08-28T07:06:42.620Z,26.42
2022-08-28T07:07:43.494Z,26.46
2022-08-28T07:08:44.368Z,26.45
2022-08-28T07:09:45.338Z,26.45
2022-08-28T07:10:46.182Z,26.51
2022-08-28T07:11:47.068Z,26.48
2022-08-28T07:12:47.929Z,26.49
2022-08-28T07:13:48.885Z,26.51
2022-08-28T07:14:49.765Z,26.51
2022-08-28T07:15:50.708Z,26.52
2022-08-28T07:16:51.907Z,26.55
2022-08-28T07:17:52.298Z,26.55
2022-08-28T07:18:53.180Z,26.59
2022-08-28T07:19:54.113Z,26.59
2022-08-28T07:20:54.958Z,26.60
2022-08-28T07:21:55.833Z,26.63
2022-08-28T07:22:59.520Z,26.60
2022-08-28T07:23:57.590Z,26.61
2022-08-28T07:24:58.468Z,26.63
2022-08-28T07:25:59.353Z,26.61
2022-08-28T07:27:00.238Z,26.64
2022-08-28T07:28:01.148Z,26.66
2022-08-28T07:29:10.319Z,26.68
2022-08-28T07:30:03.772Z,26.67
2022-08-28T07:31:03.757Z,26.71
2022-08-28T07:32:04.622Z,26.67
2022-08-28T07:33:05.529Z,26.70
2022-08-28T07:34:06.371Z,26.70
2022-08-28T07:35:07.273Z,26.73
2022-08-28T07:36:08.215Z,26.73
2022-08-28T07:37:14.684Z,26.71
2022-08-28T07:38:10.706Z,26.74
2022-08-28T07:39:10.596Z,26.74
2022-08-28T07:40:11.554Z,26.81
2022-08-28T07:41:12.446Z,26.78
2022-08-28T07:42:13.307Z,26.79
2022-08-28T07:43:14.195Z,26.79
2022-08-28T07:44:15.113Z,26.78
2022-08-28T07:45:15.957Z,26.74
2022-08-28T07:46:16.868Z,26.78
2022-08-28T07:47:17.701Z,26.78
2022-08-28T07:48:18.576Z,26.76
2022-08-28T07:49:19.239Z,26.74
2022-08-28T07:50:20.192Z,26.74
2022-08-28T07:51:21.064Z,26.78
2022-08-28T07:52:21.957Z,26.81
2022-08-28T07:53:22.823Z,26.81
2022-08-28T07:54:23.738Z,26.82
2022-08-28T07:55:24.643Z,26.82
2022-08-28T07:56:25.496Z,26.81
2022-08-28T07:57:26.370Z,26.83
2022-08-28T07:58:27.255Z,26.79
2022-08-28T07:59:31.636Z,26.88
2022-08-28T08:00:29.897Z,26.88
2022-08-28T08:01:30.839Z,26.88
2022-08-28T08:02:30.298Z,26.96
2022-08-28T08:03:31.394Z,26.97
2022-08-28T08:04:31.769Z,26.98
2022-08-28T08:05:32.665Z,27.01
2022-08-28T08:06:34.486Z,26.98
2022-08-28T08:07:34.405Z,27.00
2022-08-28T08:08:35.271Z,27.11
2022-08-28T08:09:36.208Z,27.19
2022-08-28T08:10:37.015Z,27.20
2022-08-28T08:11:37.891Z,27.25
2022-08-28T08:12:38.814Z,27.28
2022-08-28T08:13:39.700Z,27.33
2022-08-28T08:14:40.575Z,27.40
2022-08-28T08:15:41.457Z,27.41
2022-08-28T08:16:42.329Z,27.44
2022-08-28T08:17:43.240Z,27.48
2022-08-28T08:18:44.128Z,27.48
2022-08-28T08:19:45.147Z,27.44
2022-08-28T08:20:45.577Z,27.48
2022-08-28T08:21:46.414Z,27.50
2022-08-28T08:22:47.311Z,27.53
2022-08-28T08:23:48.353Z,27.52
2022-08-28T08:24:48.832Z,27.50
2022-08-28T08:25:49.697Z,27.52
2022-08-28T08:26:58.781Z,27.58
2022-08-28T08:27:52.287Z,27.58
2022-08-28T08:28:53.207Z,27.57
2022-08-28T08:29:54.573Z,27.55
2022-08-28T08:30:55.427Z,27.53
2022-08-28T08:31:55.705Z,27.61
2022-08-28T08:32:55.591Z,27.64
2022-08-28T08:33:58.722Z,27.71
2022-08-28T08:34:56.623Z,27.75
2022-08-28T08:35:57.493Z,27.82
2022-08-28T08:36:58.379Z,27.90
2022-08-28T08:38:02.759Z,27.91
2022-08-28T08:39:00.565Z,27.95
2022-08-28T08:40:00.612Z,27.97
2022-08-28T08:41:01.458Z,28.08
2022-08-28T08:42:02.343Z,28.06
2022-08-28T08:43:03.222Z,28.13
2022-08-28T08:44:04.192Z,28.15
2022-08-28T08:45:05.058Z,28.19
2022-08-28T08:46:08.158Z,28.19
2022-08-28T08:47:09.538Z,28.23
2022-08-28T08:48:08.311Z,28.31
2022-08-28T08:49:08.372Z,28.31
2022-08-28T08:50:08.715Z,28.34
2022-08-28T08:51:09.583Z,28.31
2022-08-28T08:52:10.463Z,28.34
2022-08-28T08:53:11.510Z,28.31
2022-08-28T08:54:12.325Z,28.34
2022-08-28T08:55:13.254Z,28.31
2022-08-28T08:56:13.939Z,28.30
2022-08-28T08:57:14.809Z,28.25
2022-08-28T08:58:16.723Z,28.23
2022-08-28T08:59:16.673Z,28.16
2022-08-28T09:00:17.524Z,28.10
2022-08-28T09:01:18.428Z,28.08
2022-08-28T09:02:19.426Z,28.01
2022-08-28T09:03:20.381Z,27.97
2022-08-28T09:04:21.663Z,27.95
2022-08-28T09:05:22.064Z,27.91
2022-08-28T09:06:23.032Z,27.90
2022-08-28T09:07:23.891Z,27.88
2022-08-28T09:08:24.779Z,27.93
2022-08-28T09:09:25.745Z,27.93
2022-08-28T09:10:26.569Z,27.91
2022-08-28T09:11:27.446Z,27.97
2022-08-28T09:12:28.349Z,27.95
2022-08-28T09:13:29.226Z,27.98
2022-08-28T09:14:30.158Z,28.00
2022-08-28T09:15:31.054Z,28.00
2022-08-28T09:16:31.882Z,28.04
2022-08-28T09:17:32.766Z,28.06
2022-08-28T09:18:33.661Z,28.04
2022-08-28T09:19:34.523Z,28.08
2022-08-28T09:20:35.435Z,28.13
2022-08-28T09:21:36.272Z,28.15
2022-08-28T09:22:37.166Z,28.12
2022-08-28T09:23:38.093Z,28.15
2022-08-28T09:24:39.092Z,28.16
2022-08-28T09:27:28.905Z,28.16
2022-08-28T09:28:29.809Z,28.19
2022-08-28T09:29:30.658Z,28.19
2022-08-28T09:30:31.547Z,28.19
2022-08-28T09:31:32.462Z,28.20
2022-08-28T09:32:33.292Z,28.25
2022-08-28T09:33:34.203Z,28.28
2022-08-28T09:34:38.759Z,28.28
2022-08-28T09:35:35.837Z,28.30
2022-08-28T09:36:36.714Z,28.34
2022-08-28T09:37:37.591Z,28.37
2022-08-28T09:38:38.475Z,28.43
2022-08-28T09:39:39.396Z,28.45
2022-08-28T09:40:40.329Z,28.47
2022-08-28T09:41:41.137Z,28.47
2022-08-28T09:42:42.067Z,28.52
2022-08-28T09:43:42.894Z,28.53
2022-08-28T09:44:43.831Z,28.55
2022-08-28T09:45:44.735Z,28.55
2022-08-28T09:46:45.657Z,28.53
2022-08-28T09:47:47.322Z,28.52
2022-08-28T09:48:47.193Z,28.50
2022-08-28T09:49:48.073Z,28.50
2022-08-28T09:50:48.987Z,28.46
2022-08-28T09:51:49.918Z,28.46
2022-08-28T09:52:50.842Z,28.46
2022-08-28T09:53:51.666Z,28.47
2022-08-28T09:54:52.530Z,28.46
2022-08-28T09:55:53.434Z,28.47
2022-08-28T09:56:54.354Z,28.46
2022-08-28T09:57:55.202Z,28.43
2022-08-28T09:58:56.081Z,28.45
2022-08-28T09:59:56.970Z,28.46
2022-08-28T10:00:57.849Z,28.49
2022-08-28T10:01:58.813Z,28.47
2022-08-28T10:03:01.066Z,28.49
2022-08-28T10:04:00.659Z,28.47
2022-08-28T10:05:01.555Z,28.49
2022-08-28T10:06:02.402Z,28.47
2022-08-28T10:07:03.390Z,28.45
2022-08-28T10:08:03.856Z,28.43
2022-08-28T10:09:04.765Z,28.40
2022-08-28T10:10:06.656Z,28.38
2022-08-28T10:11:06.472Z,28.34
2022-08-28T10:12:07.353Z,28.34
2022-08-28T10:13:08.221Z,28.34
2022-08-28T10:14:09.105Z,28.34
2022-08-28T10:15:10.171Z,28.34
2022-08-28T10:16:10.575Z,28.35
2022-08-28T10:17:11.420Z,28.37
2022-08-28T10:18:12.586Z,28.38
2022-08-28T10:19:12.964Z,28.41
2022-08-28T10:20:13.856Z,28.41
2022-08-28T10:21:14.755Z,28.45
2022-08-28T10:22:15.628Z,28.41
2022-08-28T10:23:17.801Z,28.46
2022-08-28T10:24:26.003Z,28.49
2022-08-28T10:25:19.021Z,28.52
2022-08-28T10:26:18.912Z,28.56
2022-08-28T10:27:19.771Z,28.56
2022-08-28T10:28:20.661Z,28.57
2022-08-28T10:29:21.559Z,28.59
2022-08-28T10:30:22.444Z,28.60
2022-08-28T10:31:23.400Z,28.60
2022-08-28T10:32:24.231Z,28.64
2022-08-28T10:33:25.098Z,28.71
2022-08-28T10:34:25.992Z,28.71
2022-08-28T10:35:26.885Z,28.68
2022-08-28T10:36:33.627Z,28.71
2022-08-28T10:37:29.524Z,28.74
2022-08-28T10:38:29.425Z,28.71
2022-08-28T10:39:30.289Z,28.68
2022-08-28T10:40:31.284Z,28.64
2022-08-28T10:41:32.104Z,28.68
2022-08-28T10:42:36.289Z,28.65
2022-08-28T10:43:33.778Z,28.70
2022-08-28T10:44:34.720Z,28.70
2022-08-28T10:45:35.565Z,28.71
2022-08-28T10:46:36.540Z,28.74
2022-08-28T10:47:37.385Z,28.72
2022-08-28T10:48:38.267Z,28.72
2022-08-28T10:49:39.126Z,28.70
2022-08-28T10:50:40.060Z,28.70
2022-08-28T10:51:44.239Z,28.62
2022-08-28T10:52:41.850Z,28.62
2022-08-28T10:53:42.717Z,28.60
2022-08-28T10:54:43.602Z,28.64
2022-08-28T10:55:44.499Z,28.62
2022-08-28T10:56:45.425Z,28.64
2022-08-28T10:57:47.145Z,28.65
2022-08-28T10:58:47.049Z,28.67
2022-08-28T10:59:47.908Z,28.67
2022-08-28T11:00:48.834Z,28.72
2022-08-28T11:01:49.750Z,28.78
2022-08-28T11:02:50.644Z,28.86
2022-08-28T11:03:51.493Z,28.90
2022-08-28T11:04:56.468Z,28.94
2022-08-28T11:05:54.196Z,29.00
2022-08-28T11:06:54.094Z,29.02
2022-08-28T11:07:55.020Z,29.05
2022-08-28T11:08:55.870Z,29.09
2022-08-28T11:09:56.753Z,29.05
2022-08-28T11:10:57.642Z,29.07
2022-08-28T11:12:01.959Z,29.00
2022-08-28T11:12:59.287Z,29.02
2022-08-28T11:14:00.143Z,29.02
2022-08-28T11:15:00.999Z,28.97
2022-08-28T11:16:01.907Z,29.00
2022-08-28T11:17:02.832Z,28.97
2022-08-28T11:18:03.779Z,28.96
2022-08-28T11:19:05.575Z,28.97
2022-08-28T11:20:05.473Z,28.96
2022-08-28T11:21:06.337Z,29.02
2022-08-28T11:22:07.227Z,29.00
2022-08-28T11:23:07.799Z,29.00
2022-08-28T11:24:08.713Z,29.00
2022-08-28T11:25:09.965Z,29.05
2022-08-28T11:26:10.156Z,29.02
2022-08-28T11:27:11.023Z,29.03
2022-08-28T11:28:11.900Z,29.10
2022-08-28T11:29:12.767Z,29.09
2022-08-28T11:30:13.738Z,29.16
2022-08-28T11:31:19.143Z,29.20
2022-08-28T11:32:16.351Z,29.22
2022-08-28T11:33:16.256Z,29.27
2022-08-28T11:34:17.110Z,29.22
2022-08-28T11:35:18.021Z,29.20
2022-08-28T11:36:18.902Z,29.18
2022-08-28T11:37:19.778Z,29.18
2022-08-28T11:38:20.681Z,29.16
2022-08-28T11:39:21.533Z,29.21
2022-08-28T11:40:22.508Z,29.21
2022-08-28T11:41:23.680Z,29.24
2022-08-28T11:42:24.064Z,29.27
2022-08-28T11:43:24.948Z,29.30
2022-08-28T11:44:25.839Z,29.32
2022-08-28T11:45:26.732Z,29.42
2022-08-28T11:46:27.668Z,29.43
2022-08-28T11:47:28.490Z,29.43
2022-08-28T11:48:29.676Z,29.42
2022-08-28T11:49:29.966Z,29.42
2022-08-28T11:50:30.857Z,29.39
2022-08-28T11:51:31.825Z,29.35
2022-08-28T11:52:32.640Z,29.30
2022-08-28T11:53:33.507Z,29.25
2022-08-28T11:54:34.401Z,29.21
2022-08-28T11:55:35.404Z,29.16
2022-08-28T11:56:36.257Z,29.15
2022-08-28T11:57:37.143Z,29.16
2022-08-28T11:58:37.822Z,29.13
2022-08-28T11:59:38.700Z,29.10
2022-08-28T12:00:39.602Z,29.09
2022-08-28T12:01:40.527Z,29.10
2022-08-28T12:02:41.482Z,29.05
2022-08-28T12:03:41.864Z,29.02
2022-08-28T12:04:42.879Z,29.00
2022-08-28T12:05:45.165Z,29.02
2022-08-28T12:06:44.251Z,29.00
2022-08-28T12:07:45.133Z,29.00
2022-08-28T12:08:46.032Z,29.02
2022-08-28T12:09:46.904Z,29.02
2022-08-28T12:10:47.777Z,29.02
2022-08-28T12:11:48.665Z,28.97
2022-08-28T12:12:49.568Z,29.03
2022-08-28T12:13:51.151Z,29.07
2022-08-28T12:14:51.097Z,29.10
2022-08-28T12:15:51.503Z,29.12
2022-08-28T12:16:52.333Z,29.15
2022-08-28T12:17:53.232Z,29.18
2022-08-28T12:18:54.113Z,29.21
2022-08-28T12:19:56.203Z,29.16
2022-08-28T12:20:55.682Z,29.13
2022-08-28T12:21:56.572Z,29.09
2022-08-28T12:22:57.460Z,29.07
2022-08-28T12:23:59.260Z,29.05
2022-08-28T12:24:59.147Z,29.06
2022-08-28T12:26:00.115Z,29.03
2022-08-28T12:27:00.984Z,29.06
2022-08-28T12:28:01.819Z,29.03
2022-08-28T12:29:02.749Z,29.05
2022-08-28T12:30:03.773Z,29.09
2022-08-28T12:31:04.239Z,29.09
2022-08-28T12:32:05.069Z,29.12
2022-08-28T12:33:05.990Z,29.16
2022-08-28T12:34:06.821Z,29.21
2022-08-28T12:35:07.404Z,29.27
2022-08-28T12:36:08.332Z,29.32
2022-08-28T12:37:09.181Z,29.40
2022-08-28T12:38:10.040Z,29.44
2022-08-28T12:39:10.973Z,29.52
2022-08-28T12:40:11.948Z,29.55
2022-08-28T12:41:12.871Z,29.59
2022-08-28T12:42:13.700Z,29.67
2022-08-28T12:43:15.186Z,29.69
2022-08-28T12:44:15.459Z,29.76
2022-08-28T12:45:16.328Z,29.77
2022-08-28T12:46:18.945Z,29.74
2022-08-28T12:47:17.835Z,29.73
2022-08-28T12:48:18.763Z,29.71
2022-08-28T12:49:19.586Z,29.69
2022-08-28T12:50:20.534Z,29.73
2022-08-28T12:51:21.399Z,29.73
2022-08-28T12:52:22.297Z,29.76
2022-08-28T12:53:23.146Z,29.83
2022-08-28T12:54:24.022Z,29.83
2022-08-28T12:55:24.939Z,29.90
2022-08-28T12:56:25.826Z,29.96
2022-08-28T12:57:26.712Z,30.10
2022-08-28T12:58:27.579Z,30.17
2022-08-28T12:59:28.485Z,30.32
2022-08-28T13:00:29.352Z,30.43
2022-08-28T13:01:30.375Z,30.55
2022-08-28T13:02:30.847Z,30.62
2022-08-28T13:03:31.693Z,30.71
2022-08-28T13:04:32.561Z,30.81
2022-08-28T13:05:33.414Z,30.89
2022-08-28T13:06:34.296Z,30.89
2022-08-28T13:07:35.202Z,30.88
2022-08-28T13:08:36.791Z,30.88